Time;durP1;ratioP1;P1;durP2;ratioP2;P2;SDS_P1;SDS_P2;PMS_P1;PMS_P2;Temp;Humidity;BMP_temperature;BMP_pressure;BME280_temperature;BME280_humidity;BME280_pressure;Samples;Min_cycle;Max_cycle;Signal;HPM_P1;HPM_P2
2024/04/01 00:00:42;;;;;;;69.30;31.15;;;7.70;100.00;;;;;;5090008;28;20059;-78
2024/04/01 00:03:08;;;;;;;70.05;30.38;;;7.70;100.00;;;;;;5092645;28;20804;-79
2024/04/01 00:05:34;;;;;;;76.65;30.00;;;7.70;100.00;;;;;;5098893;28;20465;-78
2024/04/01 00:08:00;;;;;;;68.78;29.45;;;7.80;100.00;;;;;;5068531;28;20051;-79
2024/04/01 00:10:26;;;;;;;91.90;30.73;;;7.80;100.00;;;;;;5086381;28;20048;-78
2024/04/01 00:12:58;;;;;;;74.32;29.52;;;7.80;100.00;;;;;;5093205;28;20843;-78
2024/04/01 00:15:27;;;;;;;72.32;29.85;;;7.80;100.00;;;;;;5076051;28;20052;-78
2024/04/01 00:17:53;;;;;;;79.05;32.35;;;7.80;100.00;;;;;;5088358;28;20124;-78
2024/04/01 00:20:19;;;;;;;76.00;32.22;;;7.80;100.00;;;;;;5072223;28;20116;-79
2024/04/01 00:22:45;;;;;;;73.75;30.67;;;7.80;100.00;;;;;;5068085;28;20429;-78
2024/04/01 00:25:11;;;;;;;87.35;32.33;;;7.80;100.00;;;;;;5086435;28;20055;-78
2024/04/01 00:27:37;;;;;;;89.38;34.72;;;7.90;100.00;;;;;;5081616;28;20052;-78
2024/04/01 00:30:03;;;;;;;86.50;32.90;;;7.90;100.00;;;;;;5075947;28;20052;-78
2024/04/01 00:32:31;;;;;;;90.40;32.08;;;7.80;100.00;;;;;;5097634;28;20043;-78
2024/04/01 00:34:57;;;;;;;92.15;34.03;;;7.80;100.00;;;;;;5087162;28;20047;-78
2024/04/01 00:37:23;;;;;;;82.45;32.35;;;7.90;100.00;;;;;;5084706;28;20064;-78
2024/04/01 00:39:48;;;;;;;83.20;31.88;;;7.80;100.00;;;;;;5076269;28;20192;-79
2024/04/01 00:42:14;;;;;;;90.57;34.97;;;7.90;100.00;;;;;;5072705;28;20058;-78
2024/04/01 00:44:40;;;;;;;91.60;32.97;;;7.90;100.00;;;;;;5092329;28;20058;-78
2024/04/01 00:47:06;;;;;;;83.45;32.58;;;7.90;100.00;;;;;;5094160;28;20048;-79
2024/04/01 00:49:32;;;;;;;110.22;33.35;;;7.90;100.00;;;;;;5077708;28;20104;-78
2024/04/01 00:51:58;;;;;;;94.03;34.90;;;7.90;100.00;;;;;;5088336;28;20043;-78
2024/04/01 00:54:24;;;;;;;98.57;33.55;;;7.80;100.00;;;;;;5072141;28;20056;-78
2024/04/01 00:56:51;;;;;;;96.53;33.15;;;7.90;100.00;;;;;;5090596;28;20055;-79
2024/04/01 00:59:18;;;;;;;103.10;34.42;;;7.90;100.00;;;;;;5073886;28;20458;-78
2024/04/01 01:01:46;;;;;;;102.30;35.33;;;7.90;100.00;;;;;;5086352;28;20410;-78
2024/04/01 01:04:13;;;;;;;105.10;35.40;;;7.90;100.00;;;;;;5097576;28;20060;-79
2024/04/01 01:06:39;;;;;;;104.57;35.45;;;7.90;100.00;;;;;;5073179;28;20055;-78
2024/04/01 01:09:05;;;;;;;100.20;34.78;;;7.90;100.00;;;;;;5086819;28;20059;-78
2024/04/01 01:11:32;;;;;;;103.13;34.53;;;7.90;100.00;;;;;;5073090;28;20105;-79
2024/04/01 01:13:58;;;;;;;116.57;34.70;;;7.90;100.00;;;;;;5071451;28;20089;-78
2024/04/01 01:16:23;;;;;;;112.22;36.20;;;7.90;100.00;;;;;;5085137;28;20059;-79
2024/04/01 01:18:51;;;;;;;101.55;35.90;;;7.90;100.00;;;;;;5106337;27;20088;-79
2024/04/01 01:21:17;;;;;;;100.18;35.10;;;7.90;100.00;;;;;;5080248;28;20067;-79
2024/04/01 01:23:43;;;;;;;104.70;33.47;;;8.00;100.00;;;;;;5099045;28;20199;-78
2024/04/01 01:26:08;;;;;;;93.15;31.98;;;7.90;100.00;;;;;;5080250;28;20056;-79
2024/04/01 01:28:34;;;;;;;101.10;33.97;;;8.00;100.00;;;;;;5091594;28;20059;-79
2024/04/01 01:31:01;;;;;;;100.97;34.60;;;8.00;100.00;;;;;;5089169;28;20063;-79
2024/04/01 01:33:28;;;;;;;113.25;34.22;;;8.00;100.00;;;;;;5075818;28;20047;-79
2024/04/01 01:35:55;;;;;;;110.88;35.17;;;8.00;100.00;;;;;;5075526;28;20445;-79
2024/04/01 01:38:21;;;;;;;109.38;36.72;;;8.00;100.00;;;;;;5075146;28;20611;-79
2024/04/01 01:40:47;;;;;;;109.72;33.17;;;8.00;100.00;;;;;;5074799;28;20680;-78
2024/04/01 01:43:12;;;;;;;93.75;32.85;;;8.00;100.00;;;;;;5085014;28;20068;-78
2024/04/01 01:45:38;;;;;;;104.43;34.45;;;8.00;100.00;;;;;;5093172;28;20415;-78
2024/04/01 01:48:05;;;;;;;98.53;33.35;;;8.00;100.00;;;;;;5087987;28;20071;-78
2024/04/01 01:50:31;;;;;;;100.45;34.00;;;8.00;100.00;;;;;;5085043;28;20770;-78
2024/04/01 01:52:57;;;;;;;109.63;34.60;;;7.90;100.00;;;;;;5094350;28;20051;-78
2024/04/01 01:55:23;;;;;;;107.40;35.08;;;8.00;100.00;;;;;;5098945;28;20519;-78
2024/04/01 01:57:49;;;;;;;108.68;34.42;;;8.00;100.00;;;;;;5099936;28;20055;-78
2024/04/01 02:00:15;;;;;;;100.68;33.22;;;8.00;100.00;;;;;;5065730;28;20051;-78
2024/04/01 02:02:41;;;;;;;126.35;35.30;;;8.00;100.00;;;;;;5066664;28;20083;-79
2024/04/01 02:05:08;;;;;;;107.30;35.60;;;7.90;100.00;;;;;;5089305;28;20662;-79
2024/04/01 02:07:34;;;;;;;123.65;34.05;;;7.90;100.00;;;;;;5070771;28;20052;-79
2024/04/01 02:10:00;;;;;;;98.88;34.63;;;7.90;100.00;;;;;;5091326;28;20081;-79
2024/04/01 02:12:27;;;;;;;99.53;33.13;;;7.90;100.00;;;;;;5085971;28;20105;-78
2024/04/01 02:14:53;;;;;;;108.93;34.40;;;7.90;100.00;;;;;;5091238;28;20047;-79
2024/04/01 02:17:19;;;;;;;109.60;34.67;;;7.90;100.00;;;;;;5082000;28;20497;-78
2024/04/01 02:19:45;;;;;;;103.65;36.15;;;7.90;100.00;;;;;;5095026;28;20048;-78
2024/04/01 02:22:16;;;;;;;113.05;36.55;;;7.90;100.00;;;;;;5079049;28;20416;-78
2024/04/01 02:24:43;;;;;;;104.75;35.45;;;7.90;100.00;;;;;;5068004;28;20099;-78
2024/04/01 02:27:10;;;;;;;144.18;36.63;;;7.90;100.00;;;;;;5083485;28;20105;-79
2024/04/01 02:29:39;;;;;;;102.10;34.75;;;7.90;100.00;;;;;;5086866;28;20416;-79
2024/04/01 02:32:08;;;;;;;127.03;35.42;;;7.90;100.00;;;;;;5089797;28;20619;-78
2024/04/01 02:34:34;;;;;;;136.43;34.17;;;7.90;100.00;;;;;;5095600;28;20666;-78
2024/04/01 02:37:00;;;;;;;109.82;32.97;;;7.90;100.00;;;;;;5102930;28;20056;-78
2024/04/01 02:39:26;;;;;;;102.43;34.50;;;7.90;100.00;;;;;;5092086;28;20058;-79
2024/04/01 02:41:52;;;;;;;104.30;32.65;;;7.80;100.00;;;;;;5093859;28;20232;-78
2024/04/01 02:44:18;;;;;;;104.70;31.15;;;7.80;100.00;;;;;;5098849;28;20051;-80
2024/04/01 02:46:44;;;;;;;112.32;33.25;;;7.80;100.00;;;;;;5090529;28;20627;-79
2024/04/01 02:49:11;;;;;;;106.85;34.08;;;7.80;100.00;;;;;;5075742;28;20114;-78
2024/04/01 02:51:38;;;;;;;109.40;34.38;;;7.80;100.00;;;;;;5076985;28;20054;-79
2024/04/01 02:54:05;;;;;;;156.20;33.40;;;7.70;100.00;;;;;;5100374;28;20048;-78
2024/04/01 02:56:31;;;;;;;137.10;33.72;;;7.80;100.00;;;;;;5089903;28;20066;-78
2024/04/01 02:59:09;;;;;;;147.45;36.92;;;7.70;100.00;;;;;;5076041;28;20047;-79
2024/04/01 03:01:39;;;;;;;156.75;34.75;;;7.70;100.00;;;;;;5085540;28;20059;-78
2024/04/01 03:04:06;;;;;;;117.05;33.58;;;7.70;100.00;;;;;;5100863;28;20056;-78
2024/04/01 03:06:32;;;;;;;109.28;35.25;;;7.70;100.00;;;;;;5086237;28;20049;-78
2024/04/01 03:08:58;;;;;;;150.25;34.45;;;7.70;100.00;;;;;;5087483;28;20047;-78
2024/04/01 03:11:24;;;;;;;198.07;34.75;;;7.70;100.00;;;;;;5089045;28;20105;-78
2024/04/01 03:13:50;;;;;;;177.05;35.55;;;7.70;100.00;;;;;;5091769;28;20060;-78
2024/04/01 03:16:18;;;;;;;132.15;32.97;;;7.70;100.00;;;;;;5100742;28;20055;-79
2024/04/01 03:18:44;;;;;;;114.18;33.65;;;7.70;100.00;;;;;;5077709;28;20067;-79
2024/04/01 03:21:10;;;;;;;145.70;32.53;;;7.70;100.00;;;;;;5085851;28;20064;-78
2024/04/01 03:23:36;;;;;;;122.15;32.15;;;7.70;100.00;;;;;;5072979;28;20052;-79
2024/04/01 03:26:03;;;;;;;109.03;31.63;;;7.60;100.00;;;;;;5079514;28;20048;-79
2024/04/01 03:28:29;;;;;;;172.13;32.50;;;7.60;100.00;;;;;;5102370;27;20052;-78
2024/04/01 03:30:55;;;;;;;210.30;32.88;;;7.60;100.00;;;;;;5104292;27;20044;-79
2024/04/01 03:33:20;;;;;;;142.02;33.08;;;7.50;100.00;;;;;;5088258;28;20048;-78
2024/04/01 03:35:46;;;;;;;100.20;33.33;;;7.50;100.00;;;;;;5090593;28;20047;-78
2024/04/01 03:38:12;;;;;;;92.38;33.20;;;7.50;100.00;;;;;;5080473;28;20581;-79
2024/04/01 03:40:39;;;;;;;158.38;32.45;;;7.60;100.00;;;;;;5078443;28;20771;-79
2024/04/01 03:43:06;;;;;;;146.07;33.28;;;7.60;100.00;;;;;;5067981;28;20097;-78
2024/04/01 03:45:33;;;;;;;254.60;36.58;;;7.50;100.00;;;;;;5094862;28;20565;-78
2024/04/01 03:47:59;;;;;;;163.80;32.42;;;7.50;100.00;;;;;;5086122;28;20468;-79
2024/04/01 03:50:24;;;;;;;133.50;32.42;;;7.50;100.00;;;;;;5091911;28;20047;-78
2024/04/01 03:52:52;;;;;;;185.55;32.47;;;7.50;100.00;;;;;;5100909;27;20525;-78
2024/04/01 03:55:18;;;;;;;139.73;33.08;;;7.50;100.00;;;;;;5088148;28;20048;-78
2024/04/01 03:57:44;;;;;;;137.63;33.28;;;7.40;100.00;;;;;;5087835;28;20369;-78
2024/04/01 04:00:10;;;;;;;185.50;34.80;;;7.40;100.00;;;;;;5069803;28;20059;-77
2024/04/01 04:02:36;;;;;;;178.57;31.80;;;7.40;100.00;;;;;;5066438;28;20412;-78
2024/04/01 04:05:02;;;;;;;154.82;31.77;;;7.40;100.00;;;;;;5086912;28;20051;-78
2024/04/01 04:07:28;;;;;;;136.90;34.45;;;7.40;100.00;;;;;;5067349;28;20051;-78
2024/04/01 04:09:53;;;;;;;129.48;33.45;;;7.40;100.00;;;;;;5070659;28;20111;-78
2024/04/01 04:12:19;;;;;;;158.40;32.75;;;7.40;100.00;;;;;;5086012;28;20040;-78
2024/04/01 04:14:45;;;;;;;195.57;34.00;;;7.30;100.00;;;;;;5086603;28;20044;-78
2024/04/01 04:17:11;;;;;;;136.27;32.72;;;7.20;100.00;;;;;;5092801;28;20054;-78
2024/04/01 04:19:37;;;;;;;122.88;32.38;;;7.20;100.00;;;;;;5091676;28;20135;-78
2024/04/01 04:22:03;;;;;;;136.80;34.33;;;7.20;100.00;;;;;;5084645;28;20056;-78
2024/04/01 04:24:29;;;;;;;116.10;34.67;;;7.20;100.00;;;;;;5086096;28;20078;-78
2024/04/01 04:26:55;;;;;;;114.13;31.90;;;7.20;100.00;;;;;;5086120;28;20772;-78
2024/04/01 04:29:21;;;;;;;135.75;33.38;;;7.20;100.00;;;;;;5089136;28;20090;-78
2024/04/01 04:31:54;;;;;;;147.15;35.05;;;7.20;100.00;;;;;;5087489;28;20544;-78
2024/04/01 04:34:21;;;;;;;136.25;33.47;;;7.20;100.00;;;;;;5083855;28;20044;-78
2024/04/01 04:36:47;;;;;;;107.50;32.75;;;7.20;100.00;;;;;;5066617;28;20811;-78
2024/04/01 04:39:24;;;;;;;104.38;35.05;;;7.20;100.00;;;;;;5084180;28;20886;-78
2024/04/01 04:41:54;;;;;;;183.98;35.25;;;7.20;100.00;;;;;;5101451;28;20504;-78
2024/04/01 04:44:19;;;;;;;159.88;34.47;;;7.20;100.00;;;;;;5098980;28;20059;-78
2024/04/01 04:46:45;;;;;;;157.18;32.60;;;7.20;100.00;;;;;;5088668;28;20127;-79
2024/04/01 04:49:11;;;;;;;144.57;33.90;;;7.10;100.00;;;;;;5085179;28;20048;-79
2024/04/01 04:51:37;;;;;;;133.50;32.22;;;7.10;100.00;;;;;;5084917;28;20044;-78
2024/04/01 04:54:04;;;;;;;140.45;32.70;;;7.10;100.00;;;;;;5085747;28;20063;-79
2024/04/01 04:56:31;;;;;;;127.45;32.45;;;7.10;100.00;;;;;;5082867;28;20056;-78
2024/04/01 04:58:57;;;;;;;154.52;33.08;;;7.10;100.00;;;;;;5078772;28;20058;-79
2024/04/01 05:01:24;;;;;;;186.25;33.33;;;7.10;100.00;;;;;;5094164;28;20058;-79
2024/04/01 05:03:50;;;;;;;139.30;32.72;;;7.10;100.00;;;;;;5085923;28;20659;-79
2024/04/01 05:06:16;;;;;;;167.07;32.90;;;7.10;100.00;;;;;;5089621;28;20058;-78
2024/04/01 05:08:42;;;;;;;150.55;34.38;;;7.10;100.00;;;;;;5089869;28;20055;-78
2024/04/01 05:11:08;;;;;;;174.18;31.73;;;7.10;100.00;;;;;;5083836;28;20051;-78
2024/04/01 05:13:37;;;;;;;96.95;30.48;;;7.10;100.00;;;;;;5099032;28;20044;-78
2024/04/01 05:16:05;;;;;;;98.70;30.67;;;7.10;100.00;;;;;;5092744;28;20056;-78
2024/04/01 05:18:33;;;;;;;112.38;30.15;;;7.10;100.00;;;;;;5101215;28;20047;-78
2024/04/01 05:20:59;;;;;;;131.63;30.08;;;7.10;100.00;;;;;;5099115;28;20052;-78
2024/04/01 05:23:25;;;;;;;129.10;30.48;;;7.10;100.00;;;;;;5078628;28;20110;-78
2024/04/01 05:25:51;;;;;;;124.07;30.42;;;7.10;100.00;;;;;;5087938;28;20519;-78
2024/04/01 05:28:17;;;;;;;108.95;30.65;;;7.10;100.00;;;;;;5084963;28;20048;-78
2024/04/01 05:30:43;;;;;;;127.25;32.55;;;7.20;100.00;;;;;;5080118;28;20052;-78
2024/04/01 05:33:09;;;;;;;121.53;34.53;;;7.20;100.00;;;;;;5090674;28;20058;-78
2024/04/01 05:35:37;;;;;;;94.43;30.88;;;7.20;100.00;;;;;;5080587;28;20770;-78
2024/04/01 05:38:03;;;;;;;90.80;31.02;;;7.30;100.00;;;;;;5086128;28;20054;-78
2024/04/01 05:40:29;;;;;;;97.63;31.30;;;7.30;100.00;;;;;;5070789;28;20056;-78
2024/04/01 05:42:55;;;;;;;150.57;32.47;;;7.30;100.00;;;;;;5086256;28;20677;-78
2024/04/01 05:45:21;;;;;;;86.38;30.98;;;7.30;100.00;;;;;;5087803;28;20056;-78
2024/04/01 05:47:48;;;;;;;102.22;32.38;;;7.30;100.00;;;;;;5083963;28;20056;-78
2024/04/01 05:50:18;;;;;;;102.18;32.60;;;7.40;100.00;;;;;;5089055;28;20094;-78
2024/04/01 05:52:45;;;;;;;98.32;32.65;;;7.40;100.00;;;;;;5080484;28;20105;-78
2024/04/01 05:55:11;;;;;;;86.90;33.58;;;7.50;100.00;;;;;;5083151;28;20051;-78
2024/04/01 05:57:37;;;;;;;98.00;32.30;;;7.50;100.00;;;;;;5086524;28;20048;-78
2024/04/01 06:00:04;;;;;;;108.20;33.20;;;7.50;100.00;;;;;;5070666;28;20059;-78
2024/04/01 06:02:30;;;;;;;105.97;32.97;;;7.60;100.00;;;;;;5088166;28;20057;-78
2024/04/01 06:04:56;;;;;;;99.38;33.53;;;7.70;100.00;;;;;;5065973;28;20519;-78
2024/04/01 06:07:21;;;;;;;120.63;35.53;;;7.70;100.00;;;;;;5086572;28;20666;-78
2024/04/01 06:09:47;;;;;;;92.07;34.20;;;7.70;100.00;;;;;;5089901;28;20044;-78
2024/04/01 06:12:13;;;;;;;102.32;32.97;;;7.70;100.00;;;;;;5075228;28;20129;-78
2024/04/01 06:14:39;;;;;;;93.13;34.63;;;7.80;100.00;;;;;;5099101;28;20107;-78
2024/04/01 06:17:05;;;;;;;121.72;33.47;;;7.80;100.00;;;;;;5067039;28;20066;-78
2024/04/01 06:19:31;;;;;;;107.88;35.70;;;7.90;100.00;;;;;;5074508;28;20701;-78
2024/04/01 06:21:56;;;;;;;90.57;33.17;;;7.90;100.00;;;;;;5107534;27;20067;-78
2024/04/01 06:24:22;;;;;;;102.90;32.90;;;7.90;100.00;;;;;;5067399;28;20134;-78
2024/04/01 06:26:48;;;;;;;105.90;33.28;;;8.00;100.00;;;;;;5087425;28;20047;-78
2024/04/01 06:29:14;;;;;;;152.82;35.03;;;8.00;100.00;;;;;;5101247;27;20611;-78
2024/04/01 06:31:40;;;;;;;122.75;34.10;;;8.00;100.00;;;;;;5072443;28;20055;-78
2024/04/01 06:34:06;;;;;;;105.97;32.88;;;8.00;100.00;;;;;;5065741;28;20052;-78
2024/04/01 06:36:34;;;;;;;86.43;33.70;;;8.00;100.00;;;;;;5106866;27;20059;-78
2024/04/01 06:39:03;;;;;;;83.88;30.50;;;8.10;100.00;;;;;;5081486;28;20691;-78
2024/04/01 06:41:28;;;;;;;118.78;32.33;;;8.10;100.00;;;;;;5076541;28;20059;-78
2024/04/01 06:43:54;;;;;;;92.93;31.25;;;8.10;100.00;;;;;;5069933;28;20047;-78
2024/04/01 06:46:20;;;;;;;84.72;28.75;;;8.10;100.00;;;;;;5088748;28;20628;-78
2024/04/01 06:48:46;;;;;;;77.45;28.58;;;8.20;100.00;;;;;;5069610;28;20696;-78
2024/04/01 06:51:12;;;;;;;82.18;28.90;;;8.10;100.00;;;;;;5089672;28;20124;-78
2024/04/01 06:53:37;;;;;;;87.25;29.95;;;8.10;100.00;;;;;;5088252;28;20090;-77
2024/04/01 06:56:04;;;;;;;88.88;28.92;;;8.10;100.00;;;;;;5084444;28;20052;-78
2024/04/01 06:58:29;;;;;;;93.00;28.85;;;8.10;100.00;;;;;;5091565;28;20143;-78
2024/04/01 07:00:56;;;;;;;83.95;29.45;;;8.10;100.00;;;;;;5081364;28;20048;-78
2024/04/01 07:03:23;;;;;;;86.10;30.35;;;8.20;100.00;;;;;;5067931;28;20060;-77
2024/04/01 07:05:51;;;;;;;88.05;30.65;;;8.20;100.00;;;;;;5070221;28;20052;-77
2024/04/01 07:08:18;;;;;;;94.47;30.63;;;8.20;100.00;;;;;;5067762;28;20048;-77
2024/04/01 07:10:44;;;;;;;72.95;29.42;;;8.20;100.00;;;;;;5085205;28;20048;-78
2024/04/01 07:13:10;;;;;;;85.10;30.23;;;8.20;100.00;;;;;;5088133;28;20201;-77
2024/04/01 07:15:36;;;;;;;86.68;31.80;;;8.20;100.00;;;;;;5082723;28;20051;-78
2024/04/01 07:18:02;;;;;;;81.25;30.10;;;8.20;100.00;;;;;;5078337;28;20059;-78
2024/04/01 07:20:28;;;;;;;81.43;31.35;;;8.20;100.00;;;;;;5088180;28;20056;-78
2024/04/01 07:22:54;;;;;;;67.10;29.38;;;8.30;100.00;;;;;;5080908;28;20771;-78
2024/04/01 07:25:20;;;;;;;76.97;29.75;;;8.30;100.00;;;;;;5086507;28;20629;-78
2024/04/01 07:27:45;;;;;;;93.97;31.33;;;8.30;100.00;;;;;;5066092;28;20059;-78
2024/04/01 07:30:11;;;;;;;79.93;29.02;;;8.30;100.00;;;;;;5087332;28;20054;-78
2024/04/01 07:32:38;;;;;;;77.85;29.48;;;8.20;100.00;;;;;;5070783;28;20048;-78
2024/04/01 07:35:07;;;;;;;76.75;29.23;;;8.30;100.00;;;;;;5086729;28;20055;-78
2024/04/01 07:37:33;;;;;;;82.28;30.45;;;8.30;100.00;;;;;;5088611;28;20051;-78
2024/04/01 07:39:59;;;;;;;77.22;29.55;;;8.40;100.00;;;;;;5089386;28;20068;-78
2024/04/01 07:42:25;;;;;;;77.65;30.00;;;8.40;100.00;;;;;;5085242;28;20047;-78
2024/04/01 07:44:52;;;;;;;77.32;30.73;;;8.40;100.00;;;;;;5065657;28;20048;-78
2024/04/01 07:47:19;;;;;;;77.35;30.98;;;8.50;100.00;;;;;;5065493;28;20048;-83
2024/04/01 07:49:46;;;;;;;72.90;30.48;;;8.50;100.00;;;;;;5095603;27;20056;-77
2024/04/01 07:52:12;;;;;;;70.35;31.13;;;8.60;100.00;;;;;;5069572;28;20409;-77
2024/04/01 07:54:38;;;;;;;76.18;29.77;;;8.60;100.00;;;;;;5086863;28;20051;-75
2024/04/01 07:57:04;;;;;;;79.93;30.73;;;8.60;100.00;;;;;;5087218;28;20562;-76
2024/04/01 07:59:31;;;;;;;79.75;31.30;;;8.60;100.00;;;;;;5072430;28;20062;-78
2024/04/01 08:01:57;;;;;;;74.07;28.42;;;8.60;100.00;;;;;;5119805;27;20481;-78
2024/04/01 08:04:23;;;;;;;67.68;28.50;;;8.60;100.00;;;;;;5069596;28;20063;-78
2024/04/01 08:06:50;;;;;;;70.30;28.05;;;8.60;100.00;;;;;;5106090;27;20067;-79
2024/04/01 08:09:16;;;;;;;67.07;26.98;;;8.60;100.00;;;;;;5075363;28;20124;-77
2024/04/01 08:11:42;;;;;;;66.65;28.30;;;8.60;100.00;;;;;;5091054;28;20055;-80
2024/04/01 08:14:08;;;;;;;72.93;29.60;;;8.60;100.00;;;;;;5091459;28;20055;-80
2024/04/01 08:16:34;;;;;;;66.55;28.90;;;8.60;100.00;;;;;;5073325;28;20059;-79
2024/04/01 08:19:00;;;;;;;69.35;29.08;;;8.70;100.00;;;;;;5107465;27;20077;-79
2024/04/01 08:21:26;;;;;;;73.53;29.80;;;8.80;100.00;;;;;;5070399;28;20059;-78
2024/04/01 08:23:52;;;;;;;74.00;29.08;;;8.70;100.00;;;;;;5066421;28;20181;-77
2024/04/01 08:26:18;;;;;;;68.47;29.67;;;8.80;100.00;;;;;;5086607;28;20055;-79
2024/04/01 08:28:43;;;;;;;85.97;29.25;;;8.80;100.00;;;;;;5068079;28;20056;-78
2024/04/01 08:31:10;;;;;;;74.97;28.50;;;8.80;100.00;;;;;;5083023;28;20056;-79
2024/04/01 08:33:36;;;;;;;72.82;29.27;;;8.80;100.00;;;;;;5086822;28;20450;-79
2024/04/01 08:36:04;;;;;;;69.18;27.80;;;8.90;100.00;;;;;;5089783;28;20058;-78
2024/04/01 08:38:30;;;;;;;68.30;29.65;;;9.10;100.00;;;;;;5091595;28;20055;-78
2024/04/01 08:41:17;;;;;;;67.30;27.67;;;9.20;100.00;;;;;;5070145;28;20048;-78
2024/04/01 08:44:04;;;;;;;72.88;29.02;;;9.20;100.00;;;;;;5085786;28;20827;-78
2024/04/01 08:46:31;;;;;;;67.18;29.25;;;9.20;100.00;;;;;;5070977;28;20059;-78
2024/04/01 08:49:01;;;;;;;63.58;28.95;;;9.20;100.00;;;;;;5086868;28;20500;-78
2024/04/01 08:51:27;;;;;;;71.90;29.05;;;9.20;100.00;;;;;;5080650;28;20055;-78
2024/04/01 08:54:01;;;;;;;64.35;28.42;;;9.40;100.00;;;;;;5090833;28;20442;-78
2024/04/01 08:56:29;;;;;;;72.65;29.70;;;9.40;100.00;;;;;;5075528;28;20056;-78
2024/04/01 08:58:59;;;;;;;64.32;28.80;;;9.50;100.00;;;;;;5069290;28;20055;-78
2024/04/01 09:01:25;;;;;;;76.97;30.30;;;9.60;100.00;;;;;;5068431;28;20055;-78
2024/04/01 09:03:52;;;;;;;64.30;27.95;;;9.60;100.00;;;;;;5081745;28;20491;-78
2024/04/01 09:06:19;;;;;;;59.92;28.02;;;9.70;100.00;;;;;;5080362;28;20861;-78
2024/04/01 09:08:46;;;;;;;60.03;26.83;;;9.80;100.00;;;;;;5088549;28;20052;-78
2024/04/01 09:11:13;;;;;;;66.25;27.52;;;9.80;100.00;;;;;;5081161;28;20056;-78
2024/04/01 09:13:39;;;;;;;57.38;27.05;;;9.90;100.00;;;;;;5085746;28;20043;-77
2024/04/01 09:16:06;;;;;;;63.85;27.50;;;10.00;100.00;;;;;;5082700;28;21310;-77
2024/04/01 09:18:38;;;;;;;65.10;26.70;;;10.00;100.00;;;;;;5072601;28;20052;-77
2024/04/01 09:21:06;;;;;;;65.03;27.58;;;10.10;100.00;;;;;;5066137;28;20077;-78
2024/04/01 09:23:32;;;;;;;66.43;29.13;;;10.20;100.00;;;;;;5078716;28;20060;-78
2024/04/01 09:25:59;;;;;;;67.70;29.58;;;10.40;100.00;;;;;;5060700;28;20154;-78
2024/04/01 09:28:25;;;;;;;60.92;26.70;;;10.50;100.00;;;;;;5088994;28;20085;-78
2024/04/01 09:30:52;;;;;;;62.17;27.58;;;10.70;100.00;;;;;;5085294;28;20059;-78
2024/04/01 09:33:18;;;;;;;59.63;28.95;;;11.00;100.00;;;;;;5081784;28;20052;-78
2024/04/01 09:35:43;;;;;;;61.45;27.48;;;11.30;100.00;;;;;;5083125;28;20055;-78
2024/04/01 09:38:10;;;;;;;57.83;26.25;;;11.40;100.00;;;;;;5082107;28;20110;-78
2024/04/01 09:40:36;;;;;;;55.38;27.05;;;11.60;100.00;;;;;;5083498;28;20577;-78
2024/04/01 09:43:02;;;;;;;54.63;26.67;;;11.60;100.00;;;;;;5081652;28;20052;-78
2024/04/01 09:45:31;;;;;;;56.75;25.90;;;11.80;100.00;;;;;;5068690;28;20055;-78
2024/04/01 09:47:58;;;;;;;58.72;27.00;;;11.90;100.00;;;;;;5069772;28;20412;-78
2024/04/01 09:50:25;;;;;;;57.22;26.77;;;11.70;100.00;;;;;;5088145;28;20106;-77
2024/04/01 09:52:51;;;;;;;57.60;27.05;;;11.70;100.00;;;;;;5066394;28;20051;-78
2024/04/01 09:55:21;;;;;;;54.10;25.42;;;11.60;100.00;;;;;;5088029;28;20056;-78
2024/04/01 09:58:11;;;;;;;53.03;24.63;;;11.70;100.00;;;;;;5084446;28;20048;-78
2024/04/01 10:00:52;;;;;;;56.55;25.15;;;11.60;100.00;;;;;;5088907;28;20059;-78
2024/04/01 10:03:46;;;;;;;50.75;24.88;;;11.60;100.00;;;;;;5085103;28;20052;-77
2024/04/01 10:06:18;;;;;;;66.07;26.48;;;11.50;100.00;;;;;;5084747;28;20827;-78
2024/04/01 10:09:22;;;;;;;53.80;24.95;;;11.50;100.00;;;;;;5086586;28;20059;-78
2024/04/01 10:12:20;;;;;;;58.28;25.10;;;11.50;100.00;;;;;;5070797;28;20048;-77
2024/04/01 10:14:54;;;;;;;56.47;25.80;;;11.60;100.00;;;;;;5044670;28;20509;-77
2024/04/01 10:18:13;;;;;;;62.50;26.13;;;11.60;100.00;;;;;;5065935;28;20056;-79
2024/04/01 10:21:18;;;;;;;53.45;24.33;;;11.60;100.00;;;;;;5069003;28;20691;-78
2024/04/01 10:24:06;;;;;;;65.15;26.20;;;11.40;100.00;;;;;;5070620;28;20063;-78
2024/04/01 10:26:51;;;;;;;70.10;26.85;;;11.40;100.00;;;;;;5090248;28;20124;-78
2024/04/01 10:29:49;;;;;;;53.45;25.85;;;11.30;100.00;;;;;;5088636;28;20120;-78
2024/04/01 10:32:39;;;;;;;57.10;25.20;;;11.40;100.00;;;;;;5088039;28;20047;-78
2024/04/01 10:35:24;;;;;;;58.80;25.58;;;11.40;100.00;;;;;;5087645;28;20774;-79
2024/04/01 10:38:15;;;;;;;64.15;27.05;;;11.30;100.00;;;;;;5071021;28;20048;-79
2024/04/01 10:40:41;;;;;;;64.00;28.45;;;11.40;100.00;;;;;;5086345;28;20132;-78
2024/04/01 10:43:09;;;;;;;56.53;26.45;;;11.50;100.00;;;;;;5084054;28;20048;-78
2024/04/01 10:45:35;;;;;;;59.42;28.15;;;11.60;100.00;;;;;;5087804;28;20059;-77
2024/04/01 10:48:20;;;;;;;64.40;28.55;;;11.70;100.00;;;;;;5086914;28;20051;-78
2024/04/01 10:50:49;;;;;;;56.38;26.02;;;11.80;100.00;;;;;;5070551;28;20039;-78
2024/04/01 10:53:33;;;;;;;57.90;26.88;;;11.80;100.00;;;;;;5073390;28;20036;-79
2024/04/01 10:56:21;;;;;;;65.70;26.45;;;11.80;100.00;;;;;;5086766;28;20484;-79
2024/04/01 10:59:19;;;;;;;55.22;24.80;;;11.70;100.00;;;;;;5086303;28;20477;-78
2024/04/01 11:02:03;;;;;;;62.83;25.75;;;11.60;100.00;;;;;;5090896;27;20555;-78
2024/04/01 11:04:54;;;;;;;59.28;26.98;;;11.50;100.00;;;;;;5078868;28;20044;-79
2024/04/01 11:07:51;;;;;;;69.38;28.02;;;11.50;100.00;;;;;;5066413;28;20052;-78
2024/04/01 11:10:28;;;;;;;61.55;26.90;;;11.40;100.00;;;;;;5085101;28;20032;-78
2024/04/01 11:13:15;;;;;;;63.42;26.50;;;11.40;100.00;;;;;;5085047;28;20058;-78
2024/04/01 11:15:42;;;;;;;66.30;28.35;;;11.50;100.00;;;;;;5098313;27;20056;-78
2024/04/01 11:18:49;;;;;;;75.18;27.73;;;11.50;100.00;;;;;;5064255;28;20703;-80
2024/04/01 11:21:31;;;;;;;67.50;27.98;;;11.60;100.00;;;;;;5067306;28;20040;-78
2024/04/01 11:24:33;;;;;;;72.82;26.58;;;11.70;100.00;;;;;;5068470;28;20060;-77
2024/04/01 11:27:14;;;;;;;63.40;26.90;;;11.90;100.00;;;;;;5080594;28;20044;-78
2024/04/01 11:30:01;;;;;;;60.80;26.13;;;12.00;100.00;;;;;;5084037;28;20139;-77
2024/04/01 11:32:38;;;;;;;57.03;26.35;;;12.10;100.00;;;;;;5078426;28;20060;-77
2024/04/01 11:35:03;;;;;;;66.32;26.42;;;12.10;100.00;;;;;;5077146;28;20830;-78
2024/04/01 11:37:38;;;;;;;61.50;26.55;;;12.10;100.00;;;;;;5081059;28;20056;-78
2024/04/01 11:40:10;;;;;;;62.35;25.50;;;12.00;100.00;;;;;;5083228;28;20653;-78
2024/04/01 11:42:40;;;;;;;59.25;25.75;;;12.00;100.00;;;;;;5080890;28;20059;-75
2024/04/01 11:45:09;;;;;;;56.47;25.20;;;11.90;100.00;;;;;;5083188;28;20056;-76
2024/04/01 11:47:41;;;;;;;51.92;23.60;;;11.90;100.00;;;;;;5075868;28;20036;-79
2024/04/01 11:50:18;;;;;;;64.28;25.17;;;11.80;100.00;;;;;;5083025;28;20420;-76
2024/04/01 11:52:56;;;;;;;57.83;25.80;;;11.90;100.00;;;;;;5077297;28;20044;-77
2024/04/01 11:55:23;;;;;;;59.60;26.40;;;11.90;100.00;;;;;;5080922;28;20115;-76
2024/04/01 11:57:51;;;;;;;66.38;25.75;;;11.80;100.00;;;;;;5087165;28;20059;-76
2024/04/01 12:00:17;;;;;;;58.13;24.95;;;11.80;100.00;;;;;;5067474;28;20043;-76
2024/04/01 12:02:56;;;;;;;62.20;25.35;;;11.90;100.00;;;;;;5078494;28;20133;-77
2024/04/01 12:05:22;;;;;;;64.10;26.23;;;11.90;100.00;;;;;;5084721;28;20062;-77
2024/04/01 12:07:51;;;;;;;53.83;23.38;;;11.90;100.00;;;;;;5078342;28;20135;-76
2024/04/01 12:10:19;;;;;;;57.38;24.00;;;12.00;100.00;;;;;;5097427;28;20844;-76
2024/04/01 12:12:49;;;;;;;57.50;24.10;;;11.90;100.00;;;;;;5085849;28;20054;-76
2024/04/01 12:15:18;;;;;;;64.30;25.25;;;11.80;100.00;;;;;;5095110;28;20040;-76
2024/04/01 12:17:46;;;;;;;55.45;24.98;;;11.80;100.00;;;;;;5083496;28;20077;-76
2024/04/01 12:20:12;;;;;;;67.18;26.02;;;11.70;100.00;;;;;;5074899;28;20060;-76
2024/04/01 12:22:40;;;;;;;70.03;25.20;;;11.70;100.00;;;;;;5073213;28;20055;-77
2024/04/01 12:25:15;;;;;;;52.45;23.67;;;11.60;100.00;;;;;;5084510;28;20052;-76
2024/04/01 12:27:43;;;;;;;62.13;27.10;;;11.60;100.00;;;;;;5081047;28;20457;-76
2024/04/01 12:30:09;;;;;;;71.65;26.27;;;11.50;100.00;;;;;;5090670;28;20116;-76